createdAt,value
2023-01-02T00:01:04.034Z,100.00
2023-01-02T00:03:30.896Z,100.00
2023-01-02T00:05:57.758Z,100.00
2023-01-02T00:08:24.491Z,100.00
2023-01-02T00:10:53.042Z,100.00
2023-01-02T00:13:20.151Z,100.00
2023-01-02T00:15:46.941Z,100.00
2023-01-02T00:18:13.660Z,100.00
2023-01-02T00:20:40.517Z,100.00
2023-01-02T00:23:07.690Z,100.00
2023-01-02T00:25:35.260Z,100.00
2023-01-02T00:28:02.414Z,100.00
2023-01-02T00:30:35.782Z,100.00
2023-01-02T00:33:07.737Z,100.00
2023-01-02T00:35:37.104Z,100.00
2023-01-02T00:38:04.190Z,100.00
2023-01-02T00:40:30.999Z,100.00
2023-01-02T00:42:57.716Z,100.00
2023-01-02T00:45:24.437Z,100.00
2023-01-02T00:47:51.090Z,100.00
2023-01-02T00:50:18.010Z,100.00
2023-01-02T00:52:44.673Z,100.00
2023-01-02T00:55:11.479Z,100.00
2023-01-02T00:57:38.624Z,100.00
2023-01-02T01:00:07.259Z,100.00
2023-01-02T01:02:34.096Z,100.00
2023-01-02T01:05:01.004Z,100.00
2023-01-02T01:07:30.046Z,100.00
2023-01-02T01:09:56.774Z,100.00
2023-01-02T01:12:23.887Z,100.00
2023-01-02T01:14:50.669Z,100.00
2023-01-02T01:17:17.319Z,100.00
2023-01-02T01:19:44.183Z,100.00
2023-01-02T01:22:10.821Z,100.00
2023-01-02T01:24:37.451Z,100.00
2023-01-02T01:27:04.199Z,100.00
2023-01-02T01:29:31.024Z,100.00
2023-01-02T01:31:57.707Z,100.00
2023-01-02T01:34:24.929Z,100.00
2023-01-02T01:36:51.561Z,100.00
2023-01-02T01:39:18.417Z,100.00
2023-01-02T01:41:45.538Z,100.00
2023-01-02T01:44:49.649Z,100.00
2023-01-02T01:47:23.307Z,100.00
2023-01-02T01:49:58.612Z,100.00
2023-01-02T01:52:34.054Z,100.00
2023-01-02T01:55:08.059Z,100.00
2023-01-02T01:57:43.158Z,100.00
2023-01-02T02:00:11.246Z,100.00
2023-01-02T02:02:41.574Z,100.00
2023-01-02T02:05:11.382Z,100.00
2023-01-02T02:07:42.724Z,100.00
2023-01-02T02:10:10.817Z,100.00
2023-01-02T02:12:37.516Z,100.00
2023-01-02T02:15:06.711Z,100.00
2023-01-02T02:17:45.313Z,100.00
2023-01-02T02:20:19.974Z,100.00
2023-01-02T02:23:32.083Z,100.00
2023-01-02T02:26:13.601Z,100.00
2023-01-02T02:28:59.767Z,100.00
2023-01-02T02:31:44.176Z,100.00
2023-01-02T02:34:43.273Z,100.00
2023-01-02T02:37:40.506Z,100.00
2023-01-02T02:40:20.068Z,100.00
2023-01-02T02:43:03.226Z,100.00
2023-01-02T02:45:51.246Z,100.00
2023-01-02T02:48:32.216Z,100.00
2023-01-02T02:51:06.831Z,100.00
2023-01-02T02:53:43.706Z,100.00
2023-01-02T02:56:13.048Z,100.00
2023-01-02T02:58:42.502Z,100.00
2023-01-02T03:01:16.370Z,100.00
2023-01-02T03:03:43.655Z,100.00
2023-01-02T03:06:22.385Z,100.00
2023-01-02T03:09:01.541Z,100.00
2023-01-02T03:11:48.456Z,100.00
2023-01-02T03:14:30.030Z,100.00
2023-01-02T03:17:04.234Z,100.00
2023-01-02T03:19:38.569Z,100.00
2023-01-02T03:22:17.428Z,100.00
2023-01-02T03:24:45.865Z,100.00
2023-01-02T03:27:18.158Z,100.00
2023-01-02T03:29:49.911Z,100.00
2023-01-02T03:32:22.902Z,100.00
2023-01-02T03:34:51.699Z,100.00
2023-01-02T03:37:26.831Z,100.00
2023-01-02T03:39:57.591Z,100.00
2023-01-02T03:42:40.270Z,100.00
2023-01-02T03:45:14.758Z,100.00
2023-01-02T03:48:14.619Z,100.00
2023-01-02T03:50:47.728Z,100.00
2023-01-02T03:53:14.801Z,100.00
2023-01-02T03:55:46.282Z,100.00
2023-01-02T03:58:36.425Z,100.00
2023-01-02T04:01:09.009Z,100.00
2023-01-02T04:03:49.931Z,100.00
2023-01-02T04:06:27.167Z,100.00
2023-01-02T04:09:10.670Z,100.00
2023-01-02T04:11:40.893Z,100.00
2023-01-02T04:14:17.998Z,100.00
2023-01-02T04:16:47.062Z,100.00
2023-01-02T04:19:34.993Z,100.00
2023-01-02T04:22:07.425Z,100.00
2023-01-02T04:24:38.778Z,100.00
2023-01-02T04:27:14.651Z,100.00
2023-01-02T04:29:41.451Z,100.00
2023-01-02T04:32:17.012Z,100.00
2023-01-02T04:34:45.275Z,100.00
2023-01-02T04:37:30.879Z,100.00
2023-01-02T04:40:02.986Z,100.00
2023-01-02T04:42:30.003Z,100.00
2023-01-02T04:44:57.200Z,100.00
2023-01-02T04:47:23.935Z,100.00
2023-01-02T04:49:50.639Z,100.00
2023-01-02T04:52:17.423Z,100.00
2023-01-02T04:54:44.141Z,100.00
2023-01-02T04:57:10.979Z,100.00
2023-01-02T04:59:37.708Z,100.00
2023-01-02T05:02:04.441Z,100.00
2023-01-02T05:04:31.266Z,100.00
2023-01-02T05:06:58.061Z,100.00
2023-01-02T05:09:24.752Z,100.00
2023-01-02T05:11:51.540Z,100.00
2023-01-02T05:14:18.336Z,100.00
2023-01-02T05:16:45.091Z,100.00
2023-01-02T05:19:12.676Z,100.00
2023-01-02T05:21:57.846Z,100.00
2023-01-02T05:24:26.356Z,100.00
2023-01-02T05:26:54.905Z,100.00
2023-01-02T05:29:21.613Z,100.00
2023-01-02T05:31:48.441Z,100.00
2023-01-02T05:34:16.159Z,100.00
2023-01-02T05:36:43.655Z,100.00
2023-01-02T05:39:12.427Z,100.00
2023-01-02T05:41:39.503Z,100.00
2023-01-02T05:44:08.726Z,100.00
2023-01-02T05:46:36.984Z,100.00
2023-01-02T05:49:06.329Z,100.00
2023-01-02T05:51:33.430Z,100.00
2023-01-02T05:54:00.610Z,100.00
2023-01-02T05:56:28.608Z,100.00
2023-01-02T05:58:56.182Z,100.00
2023-01-02T06:01:25.430Z,100.00
2023-01-02T06:03:57.731Z,100.00
2023-01-02T06:06:32.449Z,100.00
2023-01-02T06:09:00.138Z,100.00
2023-01-02T06:11:27.990Z,100.00
2023-01-02T06:13:55.127Z,100.00
2023-01-02T06:16:22.486Z,100.00
2023-01-02T06:18:50.021Z,100.00
2023-01-02T06:21:18.504Z,100.00
2023-01-02T06:23:48.861Z,100.00
2023-01-02T06:26:19.184Z,100.00
2023-01-02T06:28:49.072Z,100.00
2023-01-02T06:31:17.249Z,100.00
2023-01-02T06:33:44.939Z,100.00
2023-01-02T06:36:15.143Z,100.00
2023-01-02T06:38:42.111Z,100.00
2023-01-02T06:41:09.957Z,100.00
2023-01-02T06:43:41.885Z,100.00
2023-01-02T06:46:10.227Z,100.00
2023-01-02T06:48:37.110Z,100.00
2023-01-02T06:51:08.279Z,100.00
2023-01-02T06:53:36.586Z,100.00
2023-01-02T06:56:04.270Z,100.00
2023-01-02T06:58:33.830Z,100.00
2023-01-02T07:01:10.140Z,100.00
2023-01-02T07:03:37.312Z,100.00
2023-01-02T07:06:06.851Z,100.00
2023-01-02T07:08:34.162Z,100.00
2023-01-02T07:11:17.759Z,100.00
2023-01-02T07:13:45.924Z,100.00
2023-01-02T07:16:16.757Z,100.00
2023-01-02T07:18:44.134Z,100.00
2023-01-02T07:21:12.191Z,100.00
2023-01-02T07:23:39.280Z,100.00
2023-01-02T07:26:07.635Z,100.00
2023-01-02T07:28:36.045Z,100.00
2023-01-02T07:31:09.344Z,100.00
2023-01-02T07:33:36.161Z,100.00
2023-01-02T07:36:05.667Z,100.00
2023-01-02T07:38:34.218Z,100.00
2023-01-02T07:41:01.274Z,100.00
2023-01-02T07:43:28.201Z,100.00
2023-01-02T07:45:55.079Z,100.00
2023-01-02T07:48:21.712Z,100.00
2023-01-02T07:50:48.438Z,100.00
2023-01-02T07:53:15.238Z,100.00
2023-01-02T07:55:41.963Z,100.00
2023-01-02T07:58:08.846Z,100.00
2023-01-02T08:00:35.772Z,100.00
2023-01-02T08:03:02.466Z,100.00
2023-01-02T08:05:29.247Z,100.00
2023-01-02T08:07:55.913Z,100.00
2023-01-02T08:10:23.109Z,100.00
2023-01-02T08:12:50.037Z,100.00
2023-01-02T08:15:16.875Z,100.00
2023-01-02T08:17:43.745Z,100.00
2023-01-02T08:20:11.534Z,100.00
2023-01-02T08:22:39.580Z,100.00
2023-01-02T08:25:07.195Z,100.00
2023-01-02T08:27:33.963Z,100.00
2023-01-02T08:30:01.480Z,100.00
2023-01-02T08:32:28.209Z,100.00
2023-01-02T08:34:54.949Z,100.00
2023-01-02T08:37:21.660Z,100.00
2023-01-02T08:39:48.336Z,100.00
2023-01-02T08:42:15.111Z,100.00
2023-01-02T08:44:43.326Z,100.00
2023-01-02T08:47:10.013Z,100.00
2023-01-02T08:49:36.627Z,100.00
2023-01-02T08:52:03.583Z,100.00
2023-01-02T08:54:30.288Z,100.00
2023-01-02T08:56:57.121Z,100.00
2023-01-02T08:59:25.498Z,100.00
2023-01-02T09:01:53.355Z,100.00
2023-01-02T09:04:20.717Z,100.00
2023-01-02T09:06:47.983Z,100.00
2023-01-02T09:09:16.287Z,100.00
2023-01-02T09:11:46.815Z,100.00
2023-01-02T09:14:13.506Z,100.00
2023-01-02T09:16:40.300Z,100.00
2023-01-02T09:19:08.078Z,100.00
2023-01-02T09:21:35.073Z,100.00
2023-01-02T09:24:02.100Z,100.00
2023-01-02T09:26:28.846Z,100.00
2023-01-02T09:28:55.508Z,100.00
2023-01-02T09:31:22.781Z,100.00
2023-01-02T09:33:49.557Z,100.00
2023-01-02T09:36:18.926Z,100.00
2023-01-02T09:38:51.925Z,100.00
2023-01-02T09:41:21.620Z,100.00
2023-01-02T09:43:56.742Z,100.00
2023-01-02T09:46:32.627Z,100.00
2023-01-02T09:49:01.596Z,100.00
2023-01-02T09:51:28.711Z,100.00
2023-01-02T09:53:55.752Z,100.00
2023-01-02T09:56:34.154Z,100.00
2023-01-02T09:59:16.412Z,100.00
2023-01-02T10:02:18.502Z,100.00
2023-01-02T10:05:14.714Z,100.00
2023-01-02T10:07:52.960Z,100.00
2023-01-02T10:10:24.917Z,100.00
2023-01-02T10:13:12.951Z,100.00
2023-01-02T10:15:45.362Z,100.00
2023-01-02T10:18:17.289Z,100.00
2023-01-02T10:20:49.086Z,100.00
2023-01-02T10:23:22.796Z,100.00
2023-01-02T10:26:06.717Z,100.00
2023-01-02T10:28:33.445Z,100.00
2023-01-02T10:31:07.430Z,100.00
2023-01-02T10:33:49.871Z,100.00
2023-01-02T10:36:27.041Z,100.00
2023-01-02T10:38:59.063Z,100.00
2023-01-02T10:41:27.051Z,100.00
2023-01-02T10:43:59.090Z,100.00
2023-01-02T10:46:32.050Z,100.00
2023-01-02T10:48:59.290Z,100.00
2023-01-02T10:51:26.994Z,100.00
2023-01-02T10:54:08.911Z,100.00
2023-01-02T10:56:38.963Z,100.00
2023-01-02T10:59:23.708Z,100.00
2023-01-02T11:01:54.656Z,100.00
2023-01-02T11:04:24.908Z,100.00
2023-01-02T11:07:02.914Z,100.00
2023-01-02T11:09:36.507Z,100.00
2023-01-02T11:12:12.089Z,100.00
2023-01-02T11:14:39.966Z,100.00
2023-01-02T11:17:13.954Z,100.00
2023-01-02T11:19:46.452Z,100.00
2023-01-02T11:22:17.059Z,100.00
2023-01-02T11:25:01.080Z,100.00
2023-01-02T11:27:34.863Z,100.00
2023-01-02T11:30:03.694Z,98.23
2023-01-02T11:32:38.719Z,96.97
2023-01-02T11:35:26.144Z,95.33
2023-01-02T11:37:53.301Z,94.88
2023-01-02T11:40:30.421Z,93.00
2023-01-02T11:43:26.903Z,90.86
2023-01-02T11:45:54.394Z,91.14
2023-01-02T11:48:23.686Z,92.51
2023-01-02T11:50:51.155Z,93.70
2023-01-02T11:53:27.317Z,89.26
2023-01-02T11:56:10.866Z,87.17
2023-01-02T11:58:48.333Z,86.44
2023-01-02T12:01:28.189Z,84.78
2023-01-02T12:03:56.012Z,82.81
2023-01-02T12:06:32.311Z,82.35
2023-01-02T12:09:12.755Z,82.24
2023-01-02T12:11:55.709Z,82.66
2023-01-02T12:14:34.908Z,82.00
2023-01-02T12:17:25.970Z,82.95
2023-01-02T12:20:01.878Z,81.35
2023-01-02T12:23:17.908Z,82.25
2023-01-02T12:26:02.017Z,80.94
2023-01-02T12:31:46.817Z,79.39
2023-01-02T12:34:41.168Z,78.72
2023-01-02T12:37:45.562Z,77.96
2023-01-02T12:41:22.473Z,78.69
2023-01-02T12:43:52.190Z,78.68
2023-01-02T12:46:34.187Z,79.42
2023-01-02T12:49:42.273Z,76.77
2023-01-02T12:52:27.217Z,77.08
2023-01-02T13:03:06.609Z,74.97
2023-01-02T13:05:49.833Z,73.93
2023-01-02T13:08:23.791Z,72.54
2023-01-02T13:10:50.849Z,71.39
2023-01-02T13:13:18.497Z,70.62
2023-01-02T13:15:50.924Z,69.56
2023-01-02T13:18:26.456Z,70.79
2023-01-02T13:21:12.479Z,68.75
2023-01-02T13:23:47.029Z,68.42
2023-01-02T13:26:20.341Z,68.97
2023-01-02T13:28:54.552Z,68.17
2023-01-02T13:34:31.026Z,68.64
2023-01-02T13:37:06.875Z,69.70
2023-01-02T13:42:56.578Z,68.67
2023-01-02T14:05:40.477Z,73.10
2023-01-02T14:08:31.890Z,72.75
2023-01-02T14:11:18.429Z,73.31
2023-01-02T14:13:54.612Z,72.97
2023-01-02T14:16:58.686Z,74.18
2023-01-02T14:19:25.955Z,73.72
2023-01-02T14:21:58.632Z,73.46
2023-01-02T14:24:41.899Z,73.94
2023-01-02T14:27:33.147Z,76.78
2023-01-02T14:30:01.043Z,75.92
2023-01-02T14:32:45.670Z,77.19
2023-01-02T14:35:18.217Z,80.65
2023-01-02T14:37:56.329Z,80.68
2023-01-02T14:40:22.944Z,80.86
2023-01-02T14:43:14.301Z,85.20
2023-01-02T14:45:44.988Z,86.06
2023-01-02T14:49:00.781Z,95.61
2023-01-02T14:51:45.844Z,93.71
2023-01-02T14:54:44.794Z,95.40
2023-01-02T14:57:25.490Z,96.33
2023-01-02T14:59:54.006Z,100.00
2023-01-02T15:02:36.715Z,100.00
2023-01-02T15:05:18.119Z,100.00
2023-01-02T15:07:49.580Z,100.00
2023-01-02T15:10:21.182Z,100.00
2023-01-02T15:13:06.239Z,100.00
2023-01-02T15:15:47.288Z,100.00
2023-01-02T15:18:23.081Z,100.00
2023-01-02T15:21:02.449Z,100.00
2023-01-02T15:23:29.981Z,100.00
2023-01-02T15:26:33.182Z,100.00
2023-01-02T15:40:56.045Z,100.00
2023-01-02T15:43:43.680Z,100.00
2023-01-02T15:46:32.136Z,100.00
2023-01-02T15:49:14.521Z,100.00
2023-01-02T15:51:42.049Z,100.00
2023-01-02T15:54:14.236Z,100.00
2023-01-02T15:56:41.873Z,100.00
2023-01-02T15:59:29.016Z,100.00
2023-01-02T16:01:56.451Z,100.00
2023-01-02T16:04:28.705Z,100.00
2023-01-02T16:06:57.310Z,100.00
2023-01-02T16:09:29.705Z,100.00
2023-01-02T16:12:02.025Z,100.00
2023-01-02T16:14:37.048Z,100.00
2023-01-02T16:17:25.695Z,100.00
2023-01-02T16:20:28.375Z,100.00
2023-01-02T16:23:21.305Z,100.00
2023-01-02T16:25:49.989Z,100.00
2023-01-02T16:28:35.270Z,100.00
2023-01-02T16:39:25.747Z,100.00
2023-01-02T17:01:52.417Z,100.00
2023-01-02T17:04:19.105Z,100.00
2023-01-02T17:19:53.557Z,100.00
2023-01-02T17:41:13.209Z,100.00
2023-01-02T17:43:39.806Z,100.00
2023-01-02T17:47:00.820Z,100.00
2023-01-02T18:04:13.251Z,100.00
2023-01-02T18:06:40.128Z,100.00
2023-01-02T18:09:07.116Z,100.00
2023-01-02T18:11:35.216Z,100.00
2023-01-02T18:14:03.145Z,100.00
2023-01-02T18:17:30.405Z,100.00
2023-01-02T18:19:57.361Z,100.00
2023-01-02T18:22:29.308Z,100.00
2023-01-02T18:24:56.383Z,100.00
2023-01-02T18:27:27.574Z,100.00
2023-01-02T18:58:43.551Z,100.00
2023-01-02T19:01:24.934Z,100.00
2023-01-02T19:08:32.792Z,100.00
2023-01-02T19:11:48.985Z,100.00
2023-01-02T19:17:15.623Z,100.00
2023-01-02T19:19:42.283Z,100.00
2023-01-02T19:22:21.274Z,100.00
2023-01-02T19:24:48.238Z,100.00
2023-01-02T19:27:25.653Z,100.00
2023-01-02T19:29:53.651Z,100.00
2023-01-02T19:32:29.817Z,100.00
2023-01-02T19:35:00.905Z,100.00
2023-01-02T19:37:35.793Z,100.00
2023-01-02T19:40:08.195Z,100.00
2023-01-02T19:42:38.949Z,100.00
2023-01-02T19:45:14.456Z,100.00
2023-01-02T19:47:41.538Z,100.00
2023-01-02T19:50:15.254Z,100.00
2023-01-02T19:52:42.155Z,100.00
2023-01-02T19:55:10.323Z,100.00
2023-01-02T19:57:37.052Z,100.00
2023-01-02T20:00:07.156Z,100.00
2023-01-02T20:02:34.132Z,100.00
2023-01-02T20:05:00.867Z,100.00
2023-01-02T20:07:27.434Z,100.00
2023-01-02T20:09:54.141Z,100.00
2023-01-02T20:12:30.315Z,100.00
2023-01-02T20:14:58.608Z,100.00
2023-01-02T20:17:25.468Z,100.00
2023-01-02T20:19:52.089Z,100.00
2023-01-02T20:22:18.741Z,100.00
2023-01-02T20:24:45.927Z,100.00
2023-01-02T20:27:14.239Z,100.00
2023-01-02T20:29:41.667Z,100.00
2023-01-02T20:32:08.590Z,100.00
2023-01-02T20:34:35.330Z,100.00
2023-01-02T20:37:05.492Z,100.00
2023-01-02T20:39:32.352Z,100.00
2023-01-02T20:41:58.924Z,100.00
2023-01-02T20:44:25.646Z,100.00
2023-01-02T20:46:52.396Z,100.00
2023-01-02T20:49:19.721Z,100.00
2023-01-02T20:51:46.853Z,100.00
2023-01-02T20:54:13.419Z,100.00
2023-01-02T20:56:40.322Z,100.00
2023-01-02T20:59:07.068Z,100.00
2023-01-02T21:01:34.355Z,100.00
2023-01-02T21:04:01.050Z,100.00
2023-01-02T21:06:27.830Z,100.00
2023-01-02T21:08:54.461Z,100.00
2023-01-02T21:11:21.104Z,100.00
2023-01-02T21:13:47.702Z,100.00
2023-01-02T21:16:14.409Z,100.00
2023-01-02T21:18:41.415Z,100.00
2023-01-02T21:21:11.146Z,100.00
2023-01-02T21:23:41.090Z,100.00
2023-01-02T21:26:10.413Z,100.00
2023-01-02T21:28:38.212Z,100.00
2023-01-02T21:31:06.061Z,100.00
2023-01-02T21:33:33.544Z,100.00
2023-01-02T21:36:02.354Z,100.00
2023-01-02T21:38:29.496Z,100.00
2023-01-02T21:41:17.534Z,100.00
2023-01-02T21:43:44.195Z,100.00
2023-01-02T21:46:11.040Z,100.00
2023-01-02T21:48:40.624Z,100.00
2023-01-02T21:51:07.755Z,100.00
2023-01-02T21:53:34.635Z,100.00
2023-01-02T21:56:01.358Z,100.00
2023-01-02T21:58:27.993Z,100.00
2023-01-02T22:00:54.671Z,100.00
2023-01-02T22:03:21.460Z,100.00
2023-01-02T22:05:48.414Z,100.00
2023-01-02T22:08:14.974Z,100.00
2023-01-02T22:10:41.534Z,100.00
2023-01-02T22:13:08.311Z,100.00
2023-01-02T22:15:34.951Z,100.00
2023-01-02T22:18:01.616Z,100.00
2023-01-02T22:20:28.307Z,100.00
2023-01-02T22:22:55.007Z,100.00
2023-01-02T22:25:21.828Z,100.00
2023-01-02T22:27:48.463Z,100.00
2023-01-02T22:30:22.898Z,100.00
2023-01-02T22:32:51.454Z,100.00
2023-01-02T22:35:18.275Z,100.00
2023-01-02T22:37:44.860Z,100.00
2023-01-02T22:40:12.187Z,100.00
2023-01-02T22:43:03.897Z,100.00
2023-01-02T22:45:42.693Z,100.00
2023-01-02T22:48:17.480Z,100.00
2023-01-02T22:50:45.553Z,100.00
2023-01-02T22:53:17.883Z,100.00
2023-01-02T22:55:44.464Z,100.00
2023-01-02T22:58:11.174Z,100.00
2023-01-02T23:00:37.908Z,100.00
2023-01-02T23:03:05.846Z,100.00
2023-01-02T23:05:32.503Z,100.00
2023-01-02T23:07:59.238Z,100.00
2023-01-02T23:10:25.899Z,100.00
2023-01-02T23:12:52.547Z,100.00
2023-01-02T23:15:19.219Z,100.00
2023-01-02T23:18:04.658Z,100.00
2023-01-02T23:20:31.259Z,100.00
2023-01-02T23:22:57.931Z,100.00
2023-01-02T23:25:24.514Z,100.00
2023-01-02T23:27:51.639Z,100.00
2023-01-02T23:30:18.402Z,100.00
2023-01-02T23:32:45.363Z,100.00
2023-01-02T23:35:12.099Z,100.00
2023-01-02T23:37:38.699Z,100.00
2023-01-02T23:40:06.348Z,100.00
2023-01-02T23:42:32.962Z,100.00
2023-01-02T23:44:59.783Z,100.00
2023-01-02T23:47:26.427Z,100.00
2023-01-02T23:49:53.039Z,100.00
2023-01-02T23:52:19.680Z,100.00
2023-01-02T23:54:46.411Z,100.00
2023-01-02T23:57:13.048Z,100.00
2023-01-02T23:59:39.625Z,100.00
